Time;durP1;ratioP1;P1;durP2;ratioP2;P2;SDS_P1;SDS_P2;PMS_P1;PMS_P2;Temp;Humidity;BMP_temperature;BMP_pressure;BME280_temperature;BME280_humidity;BME280_pressure;Samples;Min_cycle;Max_cycle;Signal;HPM_P1;HPM_P2
2023/09/18 00:01:11;;;;;;;0.22;0.22;;;;;;;20.79;60.32;99963.91;5311816;26;20044;-94
2023/09/18 00:03:36;;;;;;;0.37;0.37;;;;;;;20.88;60.32;99962.44;5312393;26;20428;-94
2023/09/18 00:06:04;;;;;;;5.93;0.40;;;;;;;20.72;60.31;99954.72;5311755;26;20102;-92
2023/09/18 00:09:03;;;;;;;0.60;0.60;;;;;;;20.76;60.31;99950.91;5312215;26;20052;-93
2023/09/18 00:11:28;;;;;;;0.40;0.40;;;;;;;20.76;60.30;99954.41;5331229;26;20070;-92
2023/09/18 00:13:58;;;;;;;0.73;0.73;;;;;;;20.71;60.31;99958.34;5311919;26;20052;-94
2023/09/18 00:16:43;;;;;;;0.62;0.62;;;;;;;20.49;60.30;99948.41;5331464;26;20165;-93
2023/09/18 00:19:10;;;;;;;0.68;0.65;;;;;;;20.51;60.30;99949.16;5314093;26;20020;-94
2023/09/18 00:24:19;;;;;;;0.40;0.40;;;;;;;20.52;60.30;99951.69;5335788;26;20107;-94
2023/09/18 00:26:47;;;;;;;1.30;1.20;;;;;;;20.54;60.29;99943.62;5311723;26;20060;-93
2023/09/18 00:29:13;;;;;;;0.62;0.62;;;;;;;20.56;60.31;99947.03;5312929;26;20170;-93
2023/09/18 00:32:09;;;;;;;0.13;0.13;;;;;;;20.67;60.30;99943.62;5312952;26;20344;-93
2023/09/18 00:34:36;;;;;;;0.57;0.52;;;;;;;20.56;60.31;99946.19;5334127;26;20056;-93
2023/09/18 00:37:02;;;;;;;0.30;0.28;;;;;;;20.59;60.30;99946.00;5312421;26;20076;-94
2023/09/18 00:39:28;;;;;;;0.95;0.37;;;;;;;20.43;60.29;99954.97;5312221;26;20103;-94
2023/09/18 00:41:54;;;;;;;0.47;0.47;;;;;;;20.32;60.29;99944.25;5312546;26;20100;-93
2023/09/18 00:44:26;;;;;;;1.75;0.75;;;;;;;20.41;60.29;99935.75;5312744;26;20114;-93
2023/09/18 00:46:52;;;;;;;0.47;0.45;;;;;;;20.40;60.30;99939.34;5313242;26;20056;-93
2023/09/18 00:49:19;;;;;;;3.08;1.08;;;;;;;20.36;60.29;99943.13;5314001;26;20400;-95
2023/09/18 00:51:47;;;;;;;1.98;0.62;;;;;;;20.39;60.28;99947.34;5315407;26;20791;-93
2023/09/18 00:54:12;;;;;;;0.00;0.00;;;;;;;20.36;60.29;99942.28;5315801;26;20035;-95
2023/09/18 00:56:47;;;;;;;0.95;0.90;;;;;;;20.25;60.29;99943.00;5339771;26;20064;-95
2023/09/18 00:59:18;;;;;;;0.13;0.13;;;;;;;20.37;60.30;99946.59;5315117;26;20051;-95
2023/09/18 01:01:56;;;;;;;1.85;1.12;;;;;;;20.39;60.28;99936.78;5312255;26;20048;-94
2023/09/18 01:04:22;;;;;;;0.43;0.43;;;;;;;20.28;60.29;99936.66;5313236;26;20071;-95
2023/09/18 01:06:49;;;;;;;0.65;0.57;;;;;;;20.26;60.28;99934.13;5311558;26;20064;-92
2023/09/18 01:09:17;;;;;;;0.30;0.30;;;;;;;20.12;60.28;99936.88;5311369;26;20782;-92
2023/09/18 01:11:57;;;;;;;0.32;0.32;;;;;;;20.07;60.27;99931.87;5310449;26;20096;-93
2023/09/18 01:14:34;;;;;;;0.68;0.20;;;;;;;20.22;60.28;99935.28;5329489;26;20109;-93
2023/09/18 01:17:03;;;;;;;2.35;0.57;;;;;;;20.33;60.29;99932.72;5311162;26;20421;-92
2023/09/18 01:19:38;;;;;;;0.73;0.73;;;;;;;20.40;60.29;99927.88;5330551;26;20048;-92
2023/09/18 01:22:05;;;;;;;0.62;0.62;;;;;;;20.38;60.28;99929.78;5347401;26;20107;-91
2023/09/18 01:24:35;;;;;;;1.12;0.50;;;;;;;20.32;60.29;99922.25;5347897;26;20060;-93
2023/09/18 01:27:00;;;;;;;0.43;0.43;;;;;;;20.38;60.29;99924.50;5329033;26;20056;-92
2023/09/18 01:29:26;;;;;;;1.50;0.52;;;;;;;20.26;60.28;99923.53;5310666;26;20094;-92
2023/09/18 01:31:52;;;;;;;0.60;0.52;;;;;;;20.23;60.27;99929.88;5310141;26;20061;-92
2023/09/18 01:34:21;;;;;;;0.20;0.20;;;;;;;20.28;60.28;99929.56;5329489;26;20068;-93
2023/09/18 01:36:47;;;;;;;1.67;0.45;;;;;;;20.20;60.27;99929.25;5329958;26;20064;-92
2023/09/18 01:39:12;;;;;;;0.50;0.47;;;;;;;20.17;60.28;99935.59;5311159;26;20111;-93
2023/09/18 01:41:38;;;;;;;0.62;0.62;;;;;;;20.20;60.28;99937.19;5310874;26;20349;-95
2023/09/18 01:44:21;;;;;;;1.23;0.82;;;;;;;20.12;60.28;99931.59;5330208;26;20070;-96
2023/09/18 01:46:46;;;;;;;0.20;0.17;;;;;;;20.29;60.28;99927.75;5348492;26;20060;-94
2023/09/18 01:49:15;;;;;;;0.40;0.40;;;;;;;20.23;60.29;99932.53;5311423;26;20109;-93
2023/09/18 01:51:40;;;;;;;0.50;0.50;;;;;;;20.29;60.28;99936.53;5312372;26;20052;-92
2023/09/18 01:54:06;;;;;;;0.73;0.73;;;;;;;20.23;60.29;99934.31;5311437;26;20070;-95
2023/09/18 01:56:32;;;;;;;0.73;0.45;;;;;;;20.21;60.28;99926.50;5311579;26;20068;-94
2023/09/18 01:58:57;;;;;;;0.32;0.32;;;;;;;20.20;60.28;99930.09;5311575;26;20053;-95
2023/09/18 02:01:23;;;;;;;0.30;0.30;;;;;;;20.20;60.28;99926.63;5311555;26;20052;-94
2023/09/18 02:03:48;;;;;;;4.78;0.85;;;;;;;20.26;60.28;99917.41;5330506;26;20088;-95
2023/09/18 02:06:14;;;;;;;0.60;0.55;;;;;;;20.20;60.28;99923.97;5312792;26;20474;-93
2023/09/18 02:12:17;;;;;;;0.47;0.47;;;;;;;20.29;60.28;99918.03;5338460;26;20159;-94
2023/09/18 02:14:44;;;;;;;3.30;1.17;;;;;;;20.22;60.28;99924.72;5294512;26;20086;-96
2023/09/18 02:17:10;;;;;;;0.55;0.55;;;;;;;20.31;60.29;99916.13;5319635;26;20029;-94
2023/09/18 02:19:41;;;;;;;0.75;0.75;;;;;;;20.23;60.29;99919.31;5320228;26;20059;-95
2023/09/18 02:22:06;;;;;;;1.27;1.15;;;;;;;20.27;60.28;99924.37;5292765;26;20591;-95
2023/09/18 02:24:32;;;;;;;0.60;0.40;;;;;;;20.20;60.28;99921.31;5309769;26;20078;-95
2023/09/18 02:26:57;;;;;;;0.55;0.50;;;;;;;20.25;60.28;99929.78;5291224;26;20060;-93
2023/09/18 02:29:25;;;;;;;1.37;0.88;;;;;;;20.21;60.28;99929.16;5289761;26;20071;-93
2023/09/18 02:31:52;;;;;;;1.75;0.73;;;;;;;20.28;60.28;99934.84;5287147;27;20094;-95
2023/09/18 02:34:19;;;;;;;0.85;0.73;;;;;;;20.28;60.28;99934.00;5289840;26;20060;-95
2023/09/18 02:36:44;;;;;;;0.25;0.25;;;;;;;20.21;60.28;99933.59;5290039;26;20060;-93
2023/09/18 02:39:10;;;;;;;0.65;0.62;;;;;;;20.25;60.28;99935.06;5309178;26;20109;-96
2023/09/18 02:41:35;;;;;;;0.85;0.62;;;;;;;20.22;60.28;99930.00;5291129;26;20044;-95
2023/09/18 02:44:01;;;;;;;0.82;0.80;;;;;;;20.17;60.28;99932.97;5291111;26;20111;-96
2023/09/18 02:46:26;;;;;;;0.52;0.37;;;;;;;20.09;60.28;99935.25;5291594;26;20299;-95
2023/09/18 02:48:52;;;;;;;1.02;1.02;;;;;;;20.13;60.27;99931.47;5290770;26;20074;-95
2023/09/18 02:54:26;;;;;;;1.48;0.62;;;;;;;20.17;60.28;99932.97;5282980;26;20104;-96
2023/09/18 02:56:57;;;;;;;1.08;0.95;;;;;;;20.05;60.27;99944.34;5290438;26;20433;-95
2023/09/18 02:59:22;;;;;;;1.67;1.08;;;;;;;20.02;60.27;99943.72;5291720;26;20045;-95
2023/09/18 03:01:49;;;;;;;1.62;1.17;;;;;;;20.03;60.27;99937.47;5293724;26;20048;-95
2023/09/18 03:04:14;;;;;;;1.70;0.80;;;;;;;20.08;60.27;99935.38;5290622;26;20064;-96
2023/09/18 03:06:46;;;;;;;0.90;0.90;;;;;;;20.06;60.27;99935.47;5289938;26;20103;-96
2023/09/18 03:09:14;;;;;;;1.73;0.80;;;;;;;20.03;60.27;99934.84;5309572;26;20109;-95
2023/09/18 03:11:43;;;;;;;0.70;0.70;;;;;;;20.04;60.27;99940.03;5287279;27;20398;-96
2023/09/18 03:14:14;;;;;;;0.57;0.50;;;;;;;20.23;60.29;99927.25;5270797;27;20043;-95
2023/09/18 03:16:45;;;;;;;1.92;1.17;;;;;;;20.03;60.27;99927.75;5271676;27;20453;-96
2023/09/18 03:19:18;;;;;;;1.15;1.08;;;;;;;19.96;60.27;99918.56;5269646;27;20060;-96
2023/09/18 03:21:43;;;;;;;0.77;0.77;;;;;;;20.14;60.27;99919.97;5270215;27;20045;-96
2023/09/18 03:24:13;;;;;;;0.40;0.40;;;;;;;20.09;60.27;99915.91;5269137;27;20053;-96
2023/09/18 03:26:38;;;;;;;0.77;0.77;;;;;;;19.95;60.27;99919.53;5305315;27;20064;-94
2023/09/18 03:29:04;;;;;;;0.73;0.73;;;;;;;20.02;60.27;99915.50;5268183;27;20074;-92
2023/09/18 03:31:29;;;;;;;0.70;0.62;;;;;;;20.07;60.27;99916.03;5268961;27;20095;-92
2023/09/18 03:33:55;;;;;;;1.20;0.93;;;;;;;20.22;60.28;99914.12;5269312;27;20105;-93
2023/09/18 03:36:23;;;;;;;0.40;0.40;;;;;;;20.07;60.27;99909.91;5270815;27;20404;-93
2023/09/18 03:38:48;;;;;;;0.85;0.65;;;;;;;19.99;60.26;99915.72;5273828;27;20035;-93
2023/09/18 03:41:17;;;;;;;1.00;1.00;;;;;;;20.04;60.27;99915.41;5298103;27;20045;-92
2023/09/18 03:43:42;;;;;;;0.70;0.70;;;;;;;20.03;60.27;99919.00;5270503;27;20043;-93
2023/09/18 03:46:08;;;;;;;0.22;0.22;;;;;;;20.08;60.26;99915.06;5287070;27;20116;-93
2023/09/18 03:48:37;;;;;;;0.20;0.20;;;;;;;19.96;60.27;99912.44;5268588;27;20388;-92
2023/09/18 03:51:05;;;;;;;0.75;0.75;;;;;;;19.98;60.26;99915.81;5269302;27;20063;-93
2023/09/18 03:53:48;;;;;;;0.45;0.45;;;;;;;20.01;60.27;99916.44;5267844;27;20064;-93
2023/09/18 03:56:13;;;;;;;1.42;1.15;;;;;;;19.89;60.26;99912.88;5268202;27;20063;-93
2023/09/18 03:58:38;;;;;;;1.45;1.23;;;;;;;19.84;60.25;99914.94;5268071;27;20405;-93
2023/09/18 04:04:45;;;;;;;;;;;;;;;;;;;;;
2023/09/18 04:07:21;;;;;;;;;;;;;;;;;;;;;
2023/09/18 04:09:47;;;;;;;1.85;1.08;;;;;;;19.93;60.27;99903.78;5289497;26;36391;-91
2023/09/18 04:12:12;;;;;;;0.25;0.25;;;;;;;19.89;60.26;99909.37;5289004;26;20075;-93
2023/09/18 04:14:38;;;;;;;3.47;0.93;;;;;;;19.85;60.27;99898.16;5289400;26;20075;-92
2023/09/18 04:17:09;;;;;;;0.80;0.77;;;;;;;19.75;60.25;99901.53;5307786;26;20064;-94
2023/09/18 04:19:48;;;;;;;1.12;1.12;;;;;;;19.82;60.26;99893.06;5308521;26;20432;-95
2023/09/18 04:22:16;;;;;;;1.70;1.60;;;;;;;19.85;60.26;99902.59;5311369;26;20020;-95
2023/09/18 04:24:41;;;;;;;2.75;1.12;;;;;;;19.87;60.26;99892.75;5311399;26;20109;-91
2023/09/18 04:27:07;;;;;;;1.12;0.75;;;;;;;19.87;60.26;99888.34;5329289;26;20097;-92
2023/09/18 04:29:32;;;;;;;1.23;0.62;;;;;;;19.78;60.26;99891.59;5310876;26;20052;-92
2023/09/18 04:31:58;;;;;;;0.50;0.50;;;;;;;19.77;60.25;99887.25;5310740;26;20396;-92
2023/09/18 04:34:23;;;;;;;0.43;0.43;;;;;;;19.72;60.26;99885.88;5329265;26;20111;-93
2023/09/18 04:36:51;;;;;;;1.42;1.33;;;;;;;19.75;60.24;99883.03;5312086;26;20103;-94
2023/09/18 04:39:33;;;;;;;1.35;1.08;;;;;;;19.69;60.24;99889.59;5311738;26;20447;-93
2023/09/18 04:42:00;;;;;;;0.70;0.65;;;;;;;19.74;60.25;99891.91;5314588;26;20056;-93
2023/09/18 04:44:26;;;;;;;1.33;1.27;;;;;;;19.73;60.25;99888.44;5311349;26;20812;-95
2023/09/18 04:46:52;;;;;;;3.10;2.30;;;;;;;19.83;60.25;99893.91;5311246;26;20079;-94
2023/09/18 04:49:30;;;;;;;;;;;;;;;;;;;;;
2023/09/18 04:51:55;;;;;;;0.40;0.40;;;;;;;19.80;60.26;99891.50;5332502;26;36350;-95
2023/09/18 04:54:21;;;;;;;1.45;1.35;;;;;;;19.78;60.26;99894.25;5312454;26;20113;-95
2023/09/18 04:57:25;;;;;;;0.55;0.55;;;;;;;19.69;60.25;99892.22;5312288;26;20056;-94
2023/09/18 04:59:51;;;;;;;2.83;1.30;;;;;;;19.79;60.26;99887.16;5262102;27;20022;-94
2023/09/18 05:02:16;;;;;;;4.03;0.62;;;;;;;19.87;60.26;99888.34;5254323;27;20105;-93
2023/09/18 05:04:42;;;;;;;1.45;1.30;;;;;;;19.84;60.25;99888.53;5282404;26;20101;-92
2023/09/18 05:07:32;;;;;;;7.72;1.73;;;;;;;19.93;60.27;99890.56;5310983;26;20119;-93
2023/09/18 05:09:57;;;;;;;;;;;;;;;19.87;60.26;99882.19;5335852;26;20060;-93
2023/09/18 05:12:23;;;;;;;0.88;0.88;;;;;;;19.97;60.26;99890.34;5329805;26;20009;-94
2023/09/18 05:14:51;;;;;;;0.55;0.55;;;;;;;19.97;60.27;99893.00;5310408;26;20076;-92
2023/09/18 05:17:17;;;;;;;0.60;0.60;;;;;;;19.99;60.26;99881.38;5328394;26;20086;-94
2023/09/18 05:19:46;;;;;;;14.00;0.80;;;;;;;19.93;60.25;99889.72;5310499;26;20064;-92
2023/09/18 05:22:11;;;;;;;2.55;0.95;;;;;;;20.03;60.27;99892.56;5311502;26;20052;-94
2023/09/18 05:24:40;;;;;;;3.28;0.88;;;;;;;20.02;60.27;99891.72;5310350;26;20127;-93
2023/09/18 05:27:08;;;;;;;3.22;1.23;;;;;;;20.11;60.27;99893.75;5310915;26;20063;-93
2023/09/18 05:29:35;;;;;;;0.80;0.80;;;;;;;20.18;60.28;99897.66;5312353;26;20075;-95
2023/09/18 05:32:02;;;;;;;0.52;0.35;;;;;;;20.24;60.27;99896.38;5312104;26;20099;-94
2023/09/18 05:34:27;;;;;;;17.55;1.02;;;;;;;20.32;60.28;99893.19;5311017;26;20075;-94
2023/09/18 05:36:52;;;;;;;0.60;0.60;;;;;;;20.37;60.28;99894.56;5328969;26;20084;-94
2023/09/18 05:39:19;;;;;;;1.12;0.80;;;;;;;20.44;60.29;99884.44;5311044;26;20355;-93
2023/09/18 05:41:45;;;;;;;0.45;0.45;;;;;;;20.41;60.29;99887.31;5311181;26;20024;-94
2023/09/18 05:44:10;;;;;;;1.85;1.37;;;;;;;20.52;60.29;99877.63;5310922;26;20063;-92
2023/09/18 05:46:36;;;;;;;0.70;0.70;;;;;;;20.56;60.30;99878.25;5310727;26;20107;-94
2023/09/18 05:49:02;;;;;;;3.50;1.08;;;;;;;20.60;60.30;99882.41;5329304;26;20066;-94
2023/09/18 05:51:27;;;;;;;1.35;1.00;;;;;;;20.64;60.30;99880.38;5347572;26;20066;-94
2023/09/18 05:53:53;;;;;;;1.85;0.98;;;;;;;20.78;60.30;99881.06;5310636;26;20064;-93
2023/09/18 05:56:18;;;;;;;0.25;0.25;;;;;;;20.87;60.32;99884.88;5310964;26;20064;-94
2023/09/18 05:58:44;;;;;;;2.28;0.40;;;;;;;20.89;60.31;99879.47;5330021;26;20048;-94
2023/09/18 06:01:10;;;;;;;1.10;0.80;;;;;;;20.97;60.32;99872.66;5311765;26;20115;-93
2023/09/18 06:03:35;;;;;;;1.27;0.47;;;;;;;21.07;60.32;99871.03;5311545;26;20082;-94
2023/09/18 06:06:10;;;;;;;1.67;1.58;;;;;;;21.19;60.33;99873.72;5312157;26;20440;-95
2023/09/18 06:08:35;;;;;;;1.00;0.75;;;;;;;21.08;60.31;99883.31;5330833;26;20101;-94
2023/09/18 06:11:01;;;;;;;2.00;1.80;;;;;;;21.18;60.33;99880.81;5311918;26;20099;-94
2023/09/18 06:13:27;;;;;;;0.52;0.30;;;;;;;21.39;60.34;99871.31;5311584;26;20102;-93
2023/09/18 06:15:54;;;;;;;3.37;2.35;;;;;;;21.51;60.34;99872.19;5349585;26;20067;-94
2023/09/18 06:18:22;;;;;;;0.43;0.35;;;;;;;21.54;60.34;99865.84;5312186;26;20105;-94
2023/09/18 06:20:49;;;;;;;2.12;1.52;;;;;;;21.45;60.34;99870.00;5349689;26;20396;-93
2023/09/18 06:23:14;;;;;;;1.35;0.55;;;;;;;21.58;60.35;99860.19;5316853;26;20052;-96
2023/09/18 06:25:40;;;;;;;2.42;1.62;;;;;;;21.70;60.35;99856.59;5324919;26;20079;-94
2023/09/18 06:28:05;;;;;;;1.42;1.27;;;;;;;21.86;60.35;99853.63;5313233;26;20377;-92
2023/09/18 06:30:32;;;;;;;1.83;1.05;;;;;;;21.95;60.36;99854.69;5311152;26;20084;-92
2023/09/18 06:32:58;;;;;;;0.35;0.30;;;;;;;21.86;60.35;99850.13;5311697;26;20079;-93
2023/09/18 06:35:26;;;;;;;1.30;1.20;;;;;;;21.93;60.36;99853.97;5310802;26;20110;-93
2023/09/18 06:37:54;;;;;;;0.80;0.80;;;;;;;22.09;60.37;99854.50;5311880;26;20071;-93
2023/09/18 06:40:19;;;;;;;1.02;1.02;;;;;;;22.10;60.38;99850.91;5311968;26;20097;-94
2023/09/18 06:42:45;;;;;;;0.65;0.55;;;;;;;22.10;60.38;99855.34;5311088;26;20072;-92
2023/09/18 06:45:11;;;;;;;1.25;0.75;;;;;;;22.20;60.38;99854.50;5311301;26;20063;-91
2023/09/18 06:47:37;;;;;;;3.00;1.45;;;;;;;22.22;60.38;99849.94;5311682;26;20163;-93
2023/09/18 06:50:04;;;;;;;2.28;1.95;;;;;;;22.36;60.39;99852.34;5311408;26;20112;-93
2023/09/18 06:52:30;;;;;;;0.80;0.80;;;;;;;22.50;60.40;99848.59;5311877;26;20064;-93
2023/09/18 06:54:57;;;;;;;6.22;2.00;;;;;;;22.52;60.40;99849.31;5311151;26;20063;-92
2023/09/18 06:57:25;;;;;;;0.68;0.68;;;;;;;22.51;60.40;99849.44;5311756;26;20153;-94
2023/09/18 06:59:51;;;;;;;0.52;0.52;;;;;;;22.65;60.41;99852.66;5311672;26;20048;-92
2023/09/18 07:02:16;;;;;;;3.22;0.90;;;;;;;22.81;60.41;99847.00;5311320;26;20078;-93
2023/09/18 07:04:45;;;;;;;0.85;0.85;;;;;;;22.76;60.41;99843.00;5329397;26;20075;-94
2023/09/18 07:07:14;;;;;;;3.62;1.35;;;;;;;22.84;60.41;99843.25;5312111;26;20851;-93
2023/09/18 07:09:43;;;;;;;0.20;0.20;;;;;;;22.80;60.42;99847.94;5328993;26;20044;-93
2023/09/18 07:12:11;;;;;;;0.93;0.93;;;;;;;22.88;60.41;99847.34;5311324;26;20068;-93
2023/09/18 07:14:37;;;;;;;0.70;0.70;;;;;;;22.95;60.41;99846.75;5312084;26;20473;-93
2023/09/18 07:17:04;;;;;;;4.20;1.50;;;;;;;23.02;60.42;99843.56;5311318;26;20115;-93
2023/09/18 07:19:32;;;;;;;1.15;0.57;;;;;;;23.20;60.42;99839.41;5311080;26;20448;-94
2023/09/18 07:21:57;;;;;;;0.65;0.65;;;;;;;23.14;60.43;99838.06;5311405;26;20135;-93
2023/09/18 07:24:27;;;;;;;0.37;0.37;;;;;;;23.24;60.43;99839.03;5311169;26;20431;-93
2023/09/18 07:26:54;;;;;;;0.70;0.70;;;;;;;23.23;60.44;99845.31;5311952;26;20487;-93
2023/09/18 07:29:20;;;;;;;1.95;0.95;;;;;;;23.28;60.44;99834.28;5311687;26;20150;-95
2023/09/18 07:31:46;;;;;;;0.70;0.68;;;;;;;23.31;60.44;99836.69;5311394;26;20063;-93
2023/09/18 07:34:14;;;;;;;0.25;0.25;;;;;;;23.61;60.45;99837.75;5311911;26;20068;-93
2023/09/18 07:36:44;;;;;;;1.30;1.20;;;;;;;23.72;60.46;99848.34;5312792;26;20387;-94
2023/09/18 07:39:12;;;;;;;0.93;0.88;;;;;;;23.72;60.46;99837.72;5312441;26;20100;-93
2023/09/18 07:41:37;;;;;;;2.22;1.23;;;;;;;23.86;60.46;99837.34;5313085;26;20060;-93
2023/09/18 07:44:06;;;;;;;1.50;1.33;;;;;;;23.89;60.46;99832.63;5313499;26;20114;-93
2023/09/18 07:46:32;;;;;;;6.55;1.65;;;;;;;24.09;60.48;99824.72;5325674;26;20039;-93
2023/09/18 07:49:00;;;;;;;2.00;0.95;;;;;;;24.13;60.48;99827.03;5315987;26;20095;-94
2023/09/18 07:51:26;;;;;;;0.30;0.30;;;;;;;24.11;60.48;99826.28;5310886;26;20078;-94
2023/09/18 07:53:54;;;;;;;1.85;1.20;;;;;;;24.16;60.48;99825.91;5311012;26;20099;-93
2023/09/18 07:56:33;;;;;;;0.60;0.60;;;;;;;24.38;60.50;99825.75;5310978;26;20062;-93
2023/09/18 07:59:16;;;;;;;1.33;1.23;;;;;;;24.39;60.49;99819.44;5314808;26;20048;-94
2023/09/18 08:01:41;;;;;;;1.00;0.82;;;;;;;24.65;60.50;99819.78;5310895;26;20064;-93
2023/09/18 08:04:07;;;;;;;2.60;2.45;;;;;;;24.73;60.51;99813.78;5329447;26;20114;-93
2023/09/18 08:06:35;;;;;;;0.80;0.70;;;;;;;24.70;60.51;99820.22;5329295;26;20116;-93
2023/09/18 08:09:01;;;;;;;0.55;0.55;;;;;;;24.79;60.51;99816.72;5310402;26;20097;-93
2023/09/18 08:11:42;;;;;;;;;;;;;;;;;;;;;
2023/09/18 08:14:11;;;;;;;1.40;1.30;;;;;;;24.93;60.52;99809.31;5332146;26;35000;-94
2023/09/18 08:16:47;;;;;;;0.50;0.50;;;;;;;25.07;60.52;99806.25;5329470;26;20056;-95
2023/09/18 08:19:26;;;;;;;1.42;1.33;;;;;;;25.14;60.54;99794.06;5311710;26;20060;-94
2023/09/18 08:22:30;;;;;;;;;;;;;;;25.28;60.54;99800.78;5348026;26;20064;-95
2023/09/18 08:24:56;;;;;;;0.68;0.68;;;;;;;25.32;60.54;99788.88;5334623;26;19967;-93
2023/09/18 08:27:28;;;;;;;0.62;0.62;;;;;;;25.39;60.54;99789.97;5311339;26;20102;-94
2023/09/18 08:29:56;;;;;;;1.15;0.98;;;;;;;25.57;60.55;99785.59;5311794;26;20060;-93
2023/09/18 08:32:22;;;;;;;3.17;0.77;;;;;;;25.66;60.56;99786.56;5311361;26;20064;-93
2023/09/18 08:34:49;;;;;;;0.95;0.85;;;;;;;25.75;60.57;99787.53;5311361;26;20059;-95
2023/09/18 08:37:15;;;;;;;2.45;0.62;;;;;;;25.74;60.56;99784.03;5310994;26;20572;-93
2023/09/18 08:39:40;;;;;;;0.40;0.40;;;;;;;25.86;60.56;99784.69;5310826;26;20099;-93
2023/09/18 08:42:07;;;;;;;3.50;0.93;;;;;;;25.86;60.58;99784.69;5311171;26;20083;-94
2023/09/18 08:44:40;;;;;;;0.52;0.47;;;;;;;26.06;60.58;99786.31;5311027;26;20064;-94
2023/09/18 08:50:25;;;;;;;0.52;0.52;;;;;;;26.11;60.58;99781.38;5311579;26;20054;-93
2023/09/18 08:52:51;;;;;;;0.68;0.68;;;;;;;26.32;60.59;99783.78;5311381;26;20612;-93
2023/09/18 08:55:16;;;;;;;0.57;0.45;;;;;;;26.40;60.59;99778.56;5310841;26;20113;-94
2023/09/18 08:57:54;;;;;;;1.20;1.20;;;;;;;26.37;60.59;99781.53;5310913;26;20092;-94
2023/09/18 09:00:27;;;;;;;4.28;1.25;;;;;;;26.58;60.61;99786.63;5312084;26;20060;-93
2023/09/18 09:03:03;;;;;;;0.68;0.62;;;;;;;26.73;60.62;99795.78;5348398;26;20079;-94
2023/09/18 09:05:33;;;;;;;1.12;0.85;;;;;;;26.88;60.63;99788.91;5315869;26;20039;-94
2023/09/18 09:08:01;;;;;;;1.00;0.82;;;;;;;26.92;60.62;99792.12;5321022;26;20047;-95
2023/09/18 09:10:27;;;;;;;0.52;0.52;;;;;;;27.00;60.63;99794.94;5355388;26;20116;-94
2023/09/18 09:13:35;;;;;;;0.93;0.93;;;;;;;27.21;60.64;99787.44;5311225;26;20064;-95
2023/09/18 09:16:03;;;;;;;0.85;0.85;;;;;;;27.39;60.65;99795.41;5347947;26;20055;-94
2023/09/18 09:18:31;;;;;;;1.20;0.82;;;;;;;27.45;60.65;99789.44;5310560;26;20047;-94
2023/09/18 09:21:11;;;;;;;;;;;;;;;;;;;;;
2023/09/18 09:23:49;;;;;;;;;;;;;;;27.70;60.66;99779.78;5331374;26;35837;-93
2023/09/18 09:26:15;;;;;;;5.28;1.98;;;;;;;27.82;60.67;99778.50;5329109;26;19948;-93
2023/09/18 09:29:02;;;;;;;0.73;0.73;;;;;;;27.74;60.66;99773.13;5310703;26;20056;-94
2023/09/18 09:31:41;;;;;;;0.55;0.55;;;;;;;27.89;60.67;99772.50;5310605;26;20586;-94
2023/09/18 09:34:53;;;;;;;0.65;0.60;;;;;;;27.97;60.68;99770.72;5331321;26;20680;-94
2023/09/18 09:38:20;;;;;;;0.43;0.37;;;;;;;28.18;60.70;99770.31;5331761;26;20428;-94
2023/09/18 09:40:57;;;;;;;1.33;0.93;;;;;;;28.33;60.70;99774.06;5348034;26;20127;-94
2023/09/18 09:43:22;;;;;;;0.98;0.88;;;;;;;28.42;60.70;99772.28;5312846;26;20056;-94
2023/09/18 09:46:12;;;;;;;0.82;0.70;;;;;;;28.45;60.70;99771.94;5310920;26;20064;-94
2023/09/18 09:48:40;;;;;;;0.70;0.70;;;;;;;28.63;60.72;99761.97;5329495;26;20067;-93
2023/09/18 09:51:31;;;;;;;3.20;1.85;;;;;;;28.77;60.71;99757.78;5329322;26;20112;-95
2023/09/18 09:54:22;;;;;;;2.37;1.27;;;;;;;28.88;60.73;99748.63;5335213;26;20051;-94
2023/09/18 09:56:56;;;;;;;3.47;1.70;;;;;;;29.08;60.74;99741.06;5334848;26;20064;-94
2023/09/18 09:59:21;;;;;;;1.70;1.60;;;;;;;29.12;60.74;99735.22;5311002;26;20060;-95
2023/09/18 10:01:51;;;;;;;0.88;0.88;;;;;;;29.11;60.74;99736.22;5310350;26;20068;-94
2023/09/18 10:04:17;;;;;;;0.68;0.68;;;;;;;29.26;60.75;99736.38;5311330;26;20056;-95
2023/09/18 10:06:46;;;;;;;1.15;1.05;;;;;;;29.38;60.75;99732.34;5310514;26;20076;-93
2023/09/18 10:09:12;;;;;;;1.25;1.17;;;;;;;29.38;60.75;99726.97;5311088;26;20116;-94
2023/09/18 10:11:41;;;;;;;2.12;0.98;;;;;;;29.62;60.76;99712.72;5302970;26;20121;-92
2023/09/18 10:14:16;;;;;;;2.03;1.58;;;;;;;29.72;60.77;99723.22;5302809;27;20053;-93
2023/09/18 10:16:44;;;;;;;2.05;1.23;;;;;;;29.80;60.77;99705.25;5303299;26;20072;-93
2023/09/18 10:19:28;;;;;;;1.73;1.62;;;;;;;29.91;60.78;99712.09;5303370;26;20060;-93
2023/09/18 10:21:54;;;;;;;0.40;0.40;;;;;;;29.97;60.79;99711.37;5321764;27;20064;-92
2023/09/18 10:24:22;;;;;;;2.80;2.28;;;;;;;29.92;60.78;99703.03;5323489;26;20045;-91
2023/09/18 10:26:56;;;;;;;0.62;0.62;;;;;;;30.04;60.78;99698.97;5304880;26;20060;-92
2023/09/18 10:29:21;;;;;;;1.00;0.62;;;;;;;30.22;60.80;99687.97;5307617;27;20059;-91
2023/09/18 10:31:46;;;;;;;1.98;1.08;;;;;;;30.39;60.80;99680.66;5334216;26;20127;-92
2023/09/18 10:34:12;;;;;;;2.97;1.80;;;;;;;30.43;60.80;99674.75;5302587;27;20076;-92
2023/09/18 10:36:38;;;;;;;1.10;1.02;;;;;;;30.58;60.81;99680.19;5302313;27;20065;-91
2023/09/18 10:39:08;;;;;;;1.08;0.98;;;;;;;30.68;60.83;99669.22;5320475;27;20384;-92
2023/09/18 10:41:34;;;;;;;4.43;1.48;;;;;;;30.84;60.82;99669.94;5302803;27;20057;-91
2023/09/18 10:44:00;;;;;;;2.37;1.58;;;;;;;30.73;60.83;99667.66;5302509;27;20048;-92
2023/09/18 10:46:26;;;;;;;1.15;1.05;;;;;;;30.78;60.83;99661.75;5321780;27;20061;-92
2023/09/18 10:48:51;;;;;;;0.75;0.75;;;;;;;30.84;60.84;99669.94;5321657;27;20098;-91
2023/09/18 10:51:20;;;;;;;1.98;1.87;;;;;;;30.76;60.83;99664.63;5321486;27;20080;-91
2023/09/18 10:53:47;;;;;;;4.62;1.85;;;;;;;30.91;60.83;99666.50;5321758;26;20401;-90
2023/09/18 10:56:16;;;;;;;0.77;0.77;;;;;;;31.18;60.85;99663.25;5321661;27;20133;-90
2023/09/18 10:58:41;;;;;;;1.50;0.98;;;;;;;31.31;60.85;99660.75;5303506;26;20460;-91
2023/09/18 11:01:07;;;;;;;2.05;1.83;;;;;;;31.38;60.86;99659.00;5303275;27;20098;-92
2023/09/18 11:03:33;;;;;;;1.10;1.00;;;;;;;31.29;60.85;99665.50;5321315;27;20322;-92
2023/09/18 11:06:10;;;;;;;1.75;1.55;;;;;;;31.41;60.86;99665.84;5321485;27;20065;-91
2023/09/18 11:08:53;;;;;;;0.77;0.77;;;;;;;31.54;60.86;99652.59;5321405;27;20499;-89
2023/09/18 11:11:20;;;;;;;12.13;1.50;;;;;;;31.63;60.86;99656.03;5355307;26;20412;-88
2023/09/18 11:13:55;;;;;;;1.00;0.88;;;;;;;31.86;60.88;99646.00;5325479;26;20093;-87
2023/09/18 11:16:26;;;;;;;1.55;1.42;;;;;;;31.94;60.88;99637.81;5325656;26;20135;-87
2023/09/18 11:19:13;;;;;;;0.95;0.70;;;;;;;31.84;60.88;99641.81;5345288;26;20640;-88
2023/09/18 11:21:39;;;;;;;1.23;1.20;;;;;;;31.82;60.88;99631.25;5328502;26;20429;-87
2023/09/18 11:24:11;;;;;;;0.90;0.68;;;;;;;31.87;60.88;99626.13;5325060;26;20049;-87
2023/09/18 11:26:40;;;;;;;0.35;0.35;;;;;;;31.93;60.88;99633.44;5343846;26;20056;-87
2023/09/18 11:29:10;;;;;;;;;;;;;;;31.92;60.88;99623.69;5307253;26;20440;-88
2023/09/18 11:31:45;;;;;;;0.45;0.45;;;;;;;32.09;60.89;99615.41;5344091;26;19968;-87
2023/09/18 11:34:15;;;;;;;1.55;1.00;;;;;;;31.98;60.89;99628.34;5343617;26;20070;-88
2023/09/18 11:36:40;;;;;;;0.52;0.52;;;;;;;31.95;60.88;99630.59;5307009;26;20071;-87
2023/09/18 11:39:06;;;;;;;0.65;0.65;;;;;;;31.96;60.88;99624.19;5343839;26;20100;-88
2023/09/18 11:41:34;;;;;;;3.97;1.20;;;;;;;31.97;60.89;99607.00;5325640;26;20044;-87
2023/09/18 11:44:18;;;;;;;0.68;0.68;;;;;;;32.20;60.91;99615.75;5325593;26;20045;-88
2023/09/18 11:46:51;;;;;;;1.65;1.12;;;;;;;32.18;60.90;99607.03;5345043;26;20522;-88
2023/09/18 11:49:26;;;;;;;1.23;1.12;;;;;;;32.18;60.90;99606.16;5327377;26;20056;-88
2023/09/18 11:51:51;;;;;;;3.40;1.27;;;;;;;32.17;60.90;99599.09;5364789;26;20063;-87
2023/09/18 11:54:17;;;;;;;0.88;0.88;;;;;;;32.15;60.90;99598.47;5356059;26;20326;-88
2023/09/18 11:56:42;;;;;;;1.55;1.20;;;;;;;32.20;60.89;99587.97;5325083;26;20080;-88
2023/09/18 11:59:09;;;;;;;0.80;0.80;;;;;;;32.21;60.91;99592.34;5324116;26;28415;-88
2023/09/18 12:01:39;;;;;;;2.10;1.27;;;;;;;32.05;60.90;99586.16;5343636;26;20052;-88
2023/09/18 12:04:08;;;;;;;0.98;0.88;;;;;;;32.09;60.89;99575.84;5325781;26;20051;-88
2023/09/18 12:06:37;;;;;;;0.85;0.85;;;;;;;31.96;60.89;99576.53;5343742;26;20063;-87
2023/09/18 12:09:06;;;;;;;;;;;;;;;31.95;60.90;99569.50;5345293;26;20067;-87